Time;durP1;ratioP1;P1;durP2;ratioP2;P2;SDS_P1;SDS_P2;PMS_P1;PMS_P2;Temp;Humidity;BMP_temperature;BMP_pressure;BME280_temperature;BME280_humidity;BME280_pressure;Samples;Min_cycle;Max_cycle;Signal;HPM_P1;HPM_P2
2021/01/22 00:00:17;;;;;;;1.42;0.60;;;18.00;60.50;;;;;;10296352;28;20102;-62
2021/01/22 00:05:18;;;;;;;0.65;0.40;;;18.00;60.60;;;;;;10296538;28;20101;-62
2021/01/22 00:10:19;;;;;;;0.82;0.60;;;17.90;60.60;;;;;;10296823;28;20109;-62
2021/01/22 00:15:20;;;;;;;1.13;0.35;;;18.00;60.60;;;;;;10288992;28;20090;-62
2021/01/22 00:20:20;;;;;;;1.65;0.60;;;18.00;60.60;;;;;;10296473;28;20031;-62
2021/01/22 00:25:21;;;;;;;0.55;0.30;;;18.00;60.60;;;;;;10295691;28;20042;-62
2021/01/22 00:30:22;;;;;;;0.65;0.38;;;18.00;60.60;;;;;;10294780;28;20092;-61
2021/01/22 00:35:23;;;;;;;0.40;0.30;;;18.00;60.50;;;;;;10294677;28;20555;-62
2021/01/22 00:40:24;;;;;;;1.77;0.40;;;18.00;60.50;;;;;;10292102;28;20037;-61
2021/01/22 00:45:25;;;;;;;1.50;0.40;;;18.00;60.60;;;;;;10295722;28;20023;-61
2021/01/22 00:50:25;;;;;;;1.48;0.70;;;18.00;60.50;;;;;;10294985;28;20642;-61
2021/01/22 00:55:26;;;;;;;0.93;0.32;;;18.00;60.50;;;;;;10291120;28;20391;-62
2021/01/22 01:00:27;;;;;;;1.40;0.40;;;18.00;60.60;;;;;;10293408;28;20134;-61
2021/01/22 01:05:27;;;;;;;0.35;0.35;;;18.00;60.60;;;;;;10293360;28;20126;-62
2021/01/22 01:10:28;;;;;;;1.25;1.05;;;18.00;60.50;;;;;;10292380;28;20122;-61
2021/01/22 01:15:29;;;;;;;0.57;0.45;;;18.00;60.50;;;;;;10294523;28;20058;-61
2021/01/22 01:20:31;;;;;;;0.77;0.40;;;18.00;60.40;;;;;;10294230;28;20105;-62
2021/01/22 01:25:32;;;;;;;2.28;0.60;;;18.00;60.50;;;;;;10283318;28;20495;-62
2021/01/22 01:30:34;;;;;;;0.95;0.70;;;18.00;60.50;;;;;;10285266;28;20062;-62
2021/01/22 01:35:35;;;;;;;1.30;0.43;;;18.00;60.40;;;;;;10291213;28;20037;-62
2021/01/22 01:40:35;;;;;;;0.85;0.70;;;18.00;60.50;;;;;;10291430;28;20097;-62
2021/01/22 01:45:39;;;;;;;0.40;0.40;;;18.00;61.00;;;;;;10293335;28;20046;-62
2021/01/22 01:50:40;;;;;;;1.05;0.40;;;18.00;60.50;;;;;;10293425;28;20464;-61
2021/01/22 01:55:41;;;;;;;0.45;0.30;;;18.00;60.50;;;;;;10286319;28;20026;-62
2021/01/22 02:00:42;;;;;;;0.85;0.35;;;18.00;60.40;;;;;;10292865;28;20030;-61
2021/01/22 02:05:43;;;;;;;1.33;0.47;;;18.00;60.40;;;;;;10292690;28;20043;-62
2021/01/22 02:10:44;;;;;;;1.65;0.50;;;18.10;60.40;;;;;;10292573;28;20412;-62
2021/01/22 02:15:46;;;;;;;0.30;0.20;;;18.00;60.40;;;;;;10275362;28;20122;-62
2021/01/22 02:21:21;;;;;;;0.68;0.20;;;18.00;60.40;;;;;;10293988;28;20027;-61
2021/01/22 02:26:27;;;;;;;0.65;0.30;;;18.10;60.40;;;;;;10301173;28;20038;-61
2021/01/22 02:31:30;;;;;;;0.82;0.30;;;18.00;60.40;;;;;;10304745;28;20506;-62
2021/01/22 02:36:35;;;;;;;0.52;0.30;;;18.00;60.30;;;;;;10300391;28;20089;-61
2021/01/22 02:41:40;;;;;;;0.60;0.38;;;18.00;60.30;;;;;;10304363;28;20070;-61
2021/01/22 02:46:41;;;;;;;0.63;0.20;;;18.00;60.40;;;;;;10304680;28;20364;-61
2021/01/22 02:51:45;;;;;;;0.20;0.20;;;18.00;60.40;;;;;;10303930;28;20023;-61
2021/01/22 02:57:09;;;;;;;1.25;0.50;;;18.00;60.30;;;;;;10296326;28;20078;-61
2021/01/22 03:02:38;;;;;;;0.40;0.20;;;18.00;60.30;;;;;;10292477;28;20035;-61
2021/01/22 03:07:49;;;;;;;0.60;0.30;;;18.00;60.30;;;;;;10317074;28;20093;-61
2021/01/22 03:12:52;;;;;;;0.20;0.20;;;18.00;60.30;;;;;;10303594;28;20031;-62
2021/01/22 03:18:19;;;;;;;0.30;0.22;;;18.00;60.40;;;;;;10303686;28;20027;-62
2021/01/22 03:23:20;;;;;;;1.75;0.22;;;18.00;60.40;;;;;;10302180;28;20035;-61
2021/01/22 03:28:20;;;;;;;0.47;0.20;;;18.00;60.40;;;;;;10319164;28;20383;-62
2021/01/22 03:33:21;;;;;;;0.52;0.30;;;18.00;60.30;;;;;;10300972;28;20118;-62
2021/01/22 03:38:22;;;;;;;0.60;0.20;;;18.00;60.40;;;;;;10285004;28;20026;-62
2021/01/22 03:43:22;;;;;;;0.20;0.20;;;18.00;60.50;;;;;;10266548;28;20047;-61
2021/01/22 03:48:23;;;;;;;0.40;0.20;;;18.00;60.50;;;;;;10275335;28;20031;-61
2021/01/22 03:53:24;;;;;;;0.35;0.20;;;18.00;60.50;;;;;;10274830;28;20039;-62
2021/01/22 03:58:25;;;;;;;0.43;0.25;;;17.90;60.50;;;;;;10263928;28;20022;-61
2021/01/22 04:03:25;;;;;;;0.15;0.10;;;17.90;60.50;;;;;;10260621;28;20058;-62
2021/01/22 04:08:26;;;;;;;0.40;0.20;;;17.90;60.50;;;;;;10290669;28;20106;-62
2021/01/22 04:13:27;;;;;;;1.25;0.40;;;17.90;60.50;;;;;;10285176;28;20126;-62
2021/01/22 04:18:27;;;;;;;0.75;0.20;;;18.00;60.50;;;;;;10276699;28;20114;-61
2021/01/22 04:23:28;;;;;;;1.08;0.30;;;17.90;60.40;;;;;;10279062;28;20417;-62
2021/01/22 04:28:29;;;;;;;0.38;0.20;;;18.00;60.40;;;;;;10274307;28;20074;-61
2021/01/22 04:33:29;;;;;;;0.10;0.10;;;18.00;60.40;;;;;;10272057;28;20110;-61
2021/01/22 04:38:30;;;;;;;0.30;0.20;;;17.90;60.40;;;;;;10281492;28;20105;-61
2021/01/22 04:43:31;;;;;;;0.93;0.28;;;17.90;60.40;;;;;;10288909;28;20027;-62
2021/01/22 04:48:33;;;;;;;0.40;0.10;;;17.90;60.40;;;;;;10284020;28;20030;-61
2021/01/22 04:53:36;;;;;;;0.25;0.20;;;17.90;60.40;;;;;;10285842;28;20078;-61
2021/01/22 04:58:41;;;;;;;0.45;0.13;;;17.90;60.40;;;;;;10265344;28;20115;-61
2021/01/22 05:03:43;;;;;;;0.40;0.20;;;17.90;60.30;;;;;;10276193;28;20054;-61
2021/01/22 05:08:43;;;;;;;0.25;0.20;;;17.90;60.40;;;;;;10262438;28;20117;-61
2021/01/22 05:13:45;;;;;;;0.20;0.20;;;17.90;60.40;;;;;;10288410;28;20031;-61
2021/01/22 05:18:46;;;;;;;0.73;0.28;;;17.90;60.40;;;;;;10285753;28;20113;-62
2021/01/22 05:23:46;;;;;;;0.20;0.20;;;17.90;60.30;;;;;;10292286;28;20478;-61
2021/01/22 05:28:48;;;;;;;0.28;0.10;;;17.90;60.30;;;;;;10291591;28;20483;-61
2021/01/22 05:33:58;;;;;;;0.52;0.28;;;17.90;60.30;;;;;;10292831;28;20387;-61
2021/01/22 05:39:02;;;;;;;0.20;0.20;;;17.90;60.30;;;;;;10287479;28;20077;-61
2021/01/22 05:44:04;;;;;;;0.10;0.10;;;17.90;60.30;;;;;;10293313;28;20031;-61
2021/01/22 05:49:12;;;;;;;0.40;0.30;;;17.90;60.30;;;;;;10268673;28;20027;-61
2021/01/22 05:54:38;;;;;;;0.38;0.30;;;18.00;60.10;;;;;;10270735;28;20047;-61
2021/01/22 05:59:39;;;;;;;0.63;0.30;;;18.10;60.00;;;;;;10272398;28;20106;-61
2021/01/22 06:05:10;;;;;;;0.25;0.20;;;18.00;60.00;;;;;;10259755;28;20134;-61
2021/01/22 06:10:22;;;;;;;1.00;0.22;;;18.10;59.80;;;;;;10277682;28;20058;-61
2021/01/22 06:15:23;;;;;;;2.80;0.40;;;18.10;60.20;;;;;;10303472;28;20035;-61
2021/01/22 06:20:24;;;;;;;1.10;0.20;;;18.10;60.90;;;;;;10280194;28;20035;-61
2021/01/22 06:25:27;;;;;;;1.25;0.38;;;18.10;60.70;;;;;;10280671;28;20035;-62
2021/01/22 06:30:31;;;;;;;3.10;0.50;;;18.20;60.50;;;;;;10306317;28;20030;-60
2021/01/22 06:35:34;;;;;;;1.40;0.50;;;18.20;60.50;;;;;;10262109;28;20175;-62
2021/01/22 06:40:35;;;;;;;1.10;0.40;;;18.20;61.40;;;;;;10258102;28;20486;-62
2021/01/22 06:45:36;;;;;;;2.45;0.57;;;18.30;61.30;;;;;;10285974;28;20027;-62
2021/01/22 06:50:38;;;;;;;3.25;0.43;;;18.30;61.20;;;;;;10274573;28;20196;-62
2021/01/22 06:55:53;;;;;;;3.58;0.60;;;18.30;60.90;;;;;;10272971;28;20039;-61
2021/01/22 07:00:57;;;;;;;10.07;1.38;;;18.30;60.50;;;;;;10280223;28;20035;-63
2021/01/22 07:05:57;;;;;;;8.27;1.02;;;18.30;61.50;;;;;;10279041;28;20392;-60
2021/01/22 07:11:02;;;;;;;10.05;1.00;;;18.30;62.30;;;;;;10287640;28;20058;-60
2021/01/22 07:16:08;;;;;;;3.95;0.98;;;18.30;62.10;;;;;;10289003;28;20070;-59
2021/01/22 07:21:37;;;;;;;7.85;1.13;;;18.30;62.20;;;;;;10278508;28;20416;-58
2021/01/22 07:26:46;;;;;;;13.68;1.20;;;18.30;62.50;;;;;;10285294;28;20077;-59
2021/01/22 07:31:56;;;;;;;;;;;18.30;62.50;;;;;;10293854;28;20479;-59
2021/01/22 07:36:57;;;;;;;10.23;1.25;;;18.30;62.70;;;;;;10286037;28;20267;-59
2021/01/22 07:42:27;;;;;;;8.98;2.35;;;18.30;62.80;;;;;;10287392;28;20015;-59
2021/01/22 07:47:33;;;;;;;16.05;1.77;;;18.40;62.70;;;;;;10286152;28;20484;-58
2021/01/22 07:52:45;;;;;;;21.83;2.08;;;18.40;62.90;;;;;;10275241;28;20038;-59
2021/01/22 07:58:07;;;;;;;17.70;2.28;;;18.50;63.10;;;;;;10273563;28;20042;-60
2021/01/22 08:03:09;;;;;;;13.32;2.40;;;18.40;63.90;;;;;;10269314;28;20042;-59
2021/01/22 08:08:15;;;;;;;15.65;1.45;;;18.50;65.30;;;;;;10266826;28;20035;-60
2021/01/22 08:13:16;;;;;;;8.07;1.13;;;18.50;65.50;;;;;;10277359;28;20055;-59
2021/01/22 08:18:18;;;;;;;6.75;1.52;;;18.50;65.10;;;;;;10291707;28;20062;-57
2021/01/22 08:23:18;;;;;;;11.00;1.70;;;18.50;64.60;;;;;;10286345;28;20646;-57
2021/01/22 08:28:29;;;;;;;8.68;1.33;;;18.50;65.10;;;;;;10291184;28;20114;-58
2021/01/22 08:33:30;;;;;;;5.55;0.80;;;18.50;64.80;;;;;;10273972;28;20028;-58
2021/01/22 08:38:32;;;;;;;8.45;0.93;;;18.50;65.00;;;;;;10275353;28;20028;-57
2021/01/22 08:43:53;;;;;;;5.95;1.50;;;18.60;65.20;;;;;;10277998;28;20090;-58
2021/01/22 08:48:53;;;;;;;7.30;1.10;;;18.60;65.10;;;;;;10285217;28;20030;-57
2021/01/22 08:53:57;;;;;;;8.75;1.23;;;18.60;64.10;;;;;;10281812;28;20030;-52
2021/01/22 08:59:00;;;;;;;7.82;1.70;;;18.70;63.60;;;;;;10291536;28;20030;-58
2021/01/22 09:04:34;;;;;;;9.48;1.60;;;18.60;63.70;;;;;;10284346;28;20035;-58
2021/01/22 09:09:49;;;;;;;15.82;1.25;;;18.70;63.50;;;;;;10292339;28;20030;-60
2021/01/22 09:15:06;;;;;;;11.43;1.08;;;18.60;63.60;;;;;;10287742;28;20034;-57
2021/01/22 09:20:26;;;;;;;6.00;1.33;;;18.60;63.30;;;;;;10263390;28;20031;-59
2021/01/22 09:25:27;;;;;;;6.68;1.00;;;18.70;62.70;;;;;;10276830;28;20490;-59
2021/01/22 09:30:28;;;;;;;14.75;1.92;;;18.70;62.80;;;;;;10291159;28;20106;-59
2021/01/22 09:35:30;;;;;;;2.97;0.80;;;18.70;62.70;;;;;;10285681;28;20098;-59
2021/01/22 09:40:31;;;;;;;6.70;1.17;;;18.60;62.50;;;;;;10280808;28;20035;-60
2021/01/22 09:45:31;;;;;;;4.13;0.88;;;18.60;62.60;;;;;;10273201;28;20086;-60
2021/01/22 09:50:32;;;;;;;3.47;0.82;;;18.60;62.50;;;;;;10258436;28;20110;-60
2021/01/22 09:55:33;;;;;;;3.55;0.93;;;18.60;62.50;;;;;;10277288;28;20031;-59
2021/01/22 10:00:33;;;;;;;6.03;1.50;;;18.60;62.20;;;;;;10286208;28;20035;-59
2021/01/22 10:05:34;;;;;;;3.75;1.00;;;18.60;62.20;;;;;;10277049;28;20054;-60
2021/01/22 10:10:35;;;;;;;6.22;1.35;;;18.60;62.70;;;;;;10282654;28;20042;-59
2021/01/22 10:15:35;;;;;;;10.98;1.63;;;18.60;63.20;;;;;;10286963;28;20121;-56
2021/01/22 10:20:36;;;;;;;8.40;1.40;;;18.60;63.70;;;;;;10291866;28;20475;-58
2021/01/22 10:25:37;;;;;;;6.22;1.13;;;18.60;63.80;;;;;;10288954;28;20106;-60
2021/01/22 10:30:38;;;;;;;8.50;1.35;;;18.60;64.80;;;;;;10277576;28;20059;-58
2021/01/22 10:35:38;;;;;;;20.48;2.20;;;18.60;64.30;;;;;;10279894;28;20499;-59
2021/01/22 10:40:39;;;;;;;5.88;1.05;;;18.60;65.10;;;;;;10287951;28;20142;-59
2021/01/22 10:45:40;;;;;;;11.88;2.25;;;18.50;65.30;;;;;;10289112;28;20493;-58
2021/01/22 10:50:41;;;;;;;8.18;1.92;;;18.50;65.50;;;;;;10285883;28;20067;-58
2021/01/22 10:55:42;;;;;;;7.20;1.38;;;18.40;65.50;;;;;;10296790;28;20049;-58
2021/01/22 11:00:42;;;;;;;15.90;1.85;;;18.40;65.90;;;;;;10282625;28;20034;-60
2021/01/22 11:05:43;;;;;;;3.28;1.27;;;18.40;65.80;;;;;;10288577;28;20054;-58
2021/01/22 11:10:44;;;;;;;9.82;1.40;;;18.50;65.90;;;;;;10298879;28;20118;-58
2021/01/22 11:15:45;;;;;;;7.15;0.98;;;18.50;66.00;;;;;;10296231;28;20027;-59
2021/01/22 11:20:45;;;;;;;5.85;1.50;;;18.40;66.20;;;;;;10293903;28;20050;-59
2021/01/22 11:25:46;;;;;;;8.57;1.77;;;18.40;66.60;;;;;;10296280;28;20031;-59
2021/01/22 11:30:47;;;;;;;9.85;1.38;;;18.30;67.30;;;;;;10290889;28;20058;-57
2021/01/22 11:35:48;;;;;;;7.97;1.63;;;18.30;66.10;;;;;;10289347;28;20439;-59
2021/01/22 11:40:49;;;;;;;4.88;1.42;;;18.30;66.20;;;;;;10273786;28;20058;-58
2021/01/22 11:45:49;;;;;;;7.03;1.40;;;18.20;66.60;;;;;;10274974;28;20058;-60
2021/01/22 11:50:50;;;;;;;18.40;2.40;;;18.20;66.60;;;;;;10277175;28;20031;-59
2021/01/22 11:55:51;;;;;;;8.98;1.77;;;18.20;66.30;;;;;;10274667;28;20477;-58
2021/01/22 12:00:51;;;;;;;12.55;1.58;;;18.20;66.80;;;;;;10290488;28;20586;-61
2021/01/22 12:05:52;;;;;;;13.27;2.17;;;18.20;67.30;;;;;;10281085;28;20050;-59
2021/01/22 12:10:53;;;;;;;11.55;1.60;;;18.20;67.20;;;;;;10289978;28;20456;-59
2021/01/22 12:15:54;;;;;;;9.52;1.63;;;18.20;67.30;;;;;;10293878;28;20030;-60
2021/01/22 12:20:55;;;;;;;5.72;1.55;;;18.20;67.10;;;;;;10295869;28;20031;-59
2021/01/22 12:25:55;;;;;;;8.95;1.58;;;18.10;66.60;;;;;;10294454;28;20487;-59
2021/01/22 12:30:56;;;;;;;10.57;1.50;;;18.10;66.20;;;;;;10284680;28;20535;-60
2021/01/22 12:35:57;;;;;;;13.93;2.10;;;18.10;66.30;;;;;;10283882;28;20112;-59
2021/01/22 12:41:00;;;;;;;25.92;4.30;;;18.00;66.50;;;;;;10303969;28;20415;-62
2021/01/22 12:46:01;;;;;;;20.63;4.22;;;18.00;66.60;;;;;;10284249;28;20027;-60
2021/01/22 12:51:02;;;;;;;23.58;3.20;;;18.00;66.50;;;;;;10285071;28;20030;-61
2021/01/22 12:56:02;;;;;;;26.95;3.50;;;18.00;67.10;;;;;;10292870;28;20570;-59
2021/01/22 13:01:03;;;;;;;16.10;2.10;;;17.90;67.60;;;;;;10287333;28;20495;-59
2021/01/22 13:06:04;;;;;;;14.57;2.92;;;17.90;67.50;;;;;;10281521;28;20105;-60
2021/01/22 13:11:05;;;;;;;18.33;3.10;;;17.90;67.70;;;;;;10292842;28;20113;-60
2021/01/22 13:16:05;;;;;;;15.02;3.00;;;17.90;67.70;;;;;;10292636;28;20121;-61
2021/01/22 13:21:06;;;;;;;9.65;1.98;;;17.80;67.60;;;;;;10293552;28;20117;-58
2021/01/22 13:26:09;;;;;;;13.77;2.63;;;17.80;67.10;;;;;;10272440;28;20544;-60
2021/01/22 13:31:10;;;;;;;7.63;2.55;;;17.80;66.30;;;;;;10272981;28;20045;-59
2021/01/22 13:36:11;;;;;;;12.57;2.50;;;17.70;66.40;;;;;;10281087;28;20399;-59
2021/01/22 13:41:12;;;;;;;10.85;2.30;;;17.70;65.70;;;;;;10282195;28;20093;-59
2021/01/22 13:46:12;;;;;;;10.80;2.17;;;17.70;65.90;;;;;;10271696;28;20097;-58
2021/01/22 13:51:14;;;;;;;11.40;2.33;;;17.70;65.90;;;;;;10257810;28;20421;-58
2021/01/22 13:56:15;;;;;;;14.32;2.53;;;17.60;65.70;;;;;;10280866;28;20395;-58
2021/01/22 14:01:16;;;;;;;9.13;1.50;;;17.60;65.60;;;;;;10285106;28;20046;-58
2021/01/22 14:06:17;;;;;;;12.93;2.42;;;17.50;65.50;;;;;;10279238;28;20047;-59
2021/01/22 14:11:18;;;;;;;9.90;2.30;;;17.60;71.70;;;;;;10272972;28;20492;-60
2021/01/22 14:16:18;;;;;;;8.82;1.90;;;17.70;67.10;;;;;;10274979;28;20035;-60
2021/01/22 14:21:19;;;;;;;9.77;2.67;;;17.70;65.80;;;;;;10263951;28;20471;-58
2021/01/22 14:26:22;;;;;;;9.73;1.77;;;17.60;66.60;;;;;;10258506;28;20019;-61
2021/01/22 14:31:23;;;;;;;8.57;1.77;;;17.60;66.30;;;;;;10289940;28;20364;-58
2021/01/22 14:36:23;;;;;;;16.45;3.28;;;17.60;66.00;;;;;;10288188;28;20113;-59
2021/01/22 14:41:24;;;;;;;17.10;3.58;;;17.60;66.50;;;;;;10286318;28;20037;-60
2021/01/22 14:46:25;;;;;;;13.48;3.42;;;17.50;67.60;;;;;;10271153;28;20101;-58
2021/01/22 14:51:25;;;;;;;14.27;2.78;;;17.50;67.00;;;;;;10267801;28;20098;-58
2021/01/22 14:56:27;;;;;;;8.25;2.20;;;17.50;66.80;;;;;;10281219;28;20164;-58
2021/01/22 15:01:27;;;;;;;9.43;2.10;;;17.50;66.70;;;;;;10283970;28;20015;-59
2021/01/22 15:06:28;;;;;;;10.68;2.58;;;17.50;66.50;;;;;;10283682;28;20079;-58
2021/01/22 15:11:28;;;;;;;6.68;2.38;;;17.50;66.50;;;;;;10271644;28;20110;-58
2021/01/22 15:16:29;;;;;;;9.43;2.90;;;17.50;66.60;;;;;;10271516;28;20115;-59
2021/01/22 15:21:30;;;;;;;12.23;3.17;;;17.50;66.80;;;;;;10259132;28;20023;-56
2021/01/22 15:26:32;;;;;;;8.60;2.13;;;17.50;66.60;;;;;;10254661;28;20027;-59
2021/01/22 15:31:32;;;;;;;15.00;2.70;;;17.50;67.10;;;;;;10294277;28;20073;-58
2021/01/22 15:36:33;;;;;;;9.88;2.78;;;17.50;67.00;;;;;;10273234;28;20380;-58
2021/01/22 15:41:34;;;;;;;13.98;2.75;;;17.50;66.70;;;;;;10286251;28;20043;-61
2021/01/22 15:46:35;;;;;;;9.32;2.40;;;17.60;67.40;;;;;;10275620;28;20038;-61
2021/01/22 15:51:35;;;;;;;10.32;2.45;;;17.60;67.30;;;;;;10279607;28;20121;-60
2021/01/22 15:56:36;;;;;;;12.43;2.35;;;17.70;67.30;;;;;;10281100;28;20072;-58
2021/01/22 16:01:37;;;;;;;10.75;1.98;;;17.80;66.60;;;;;;10290778;28;20572;-58
2021/01/22 16:06:38;;;;;;;12.25;2.70;;;17.90;66.30;;;;;;10284996;28;20503;-58
2021/01/22 16:11:39;;;;;;;10.55;2.63;;;17.90;66.00;;;;;;10291245;28;20026;-58
2021/01/22 16:16:39;;;;;;;12.30;2.55;;;18.10;66.20;;;;;;10290692;28;20367;-57
2021/01/22 16:21:40;;;;;;;6.82;2.33;;;18.10;65.80;;;;;;10294600;28;20119;-57
2021/01/22 16:26:41;;;;;;;10.35;2.70;;;18.10;65.10;;;;;;10295644;28;20063;-58
2021/01/22 16:31:42;;;;;;;9.18;3.00;;;18.00;64.40;;;;;;10273648;28;20069;-61
2021/01/22 16:36:43;;;;;;;15.20;3.03;;;18.10;64.90;;;;;;10292065;28;20526;-55
2021/01/22 16:41:43;;;;;;;14.88;2.22;;;18.10;63.50;;;;;;10289997;28;20369;-57
2021/01/22 16:46:44;;;;;;;20.90;3.40;;;18.10;63.20;;;;;;10279209;28;20454;-61
2021/01/22 16:51:45;;;;;;;14.50;3.13;;;18.00;63.10;;;;;;10283066;28;20118;-59
2021/01/22 16:56:46;;;;;;;19.75;3.10;;;18.00;62.70;;;;;;10310237;28;20117;-59
2021/01/22 17:01:47;;;;;;;8.43;2.00;;;18.00;62.10;;;;;;10282492;28;20492;-58
2021/01/22 17:06:47;;;;;;;9.20;2.20;;;18.10;61.90;;;;;;10284070;28;20540;-58
2021/01/22 17:11:49;;;;;;;12.07;1.88;;;18.10;64.10;;;;;;10288301;28;20041;-59
2021/01/22 17:16:51;;;;;;;9.75;2.17;;;18.10;65.10;;;;;;10292207;28;20114;-58
2021/01/22 17:21:51;;;;;;;7.47;2.80;;;18.20;64.50;;;;;;10288691;28;20440;-58
2021/01/22 17:26:52;;;;;;;7.00;2.03;;;18.20;64.50;;;;;;10277875;28;20110;-59
2021/01/22 17:31:53;;;;;;;7.00;2.22;;;18.30;64.40;;;;;;10276824;28;20582;-60
2021/01/22 17:36:53;;;;;;;11.07;2.35;;;18.30;64.40;;;;;;10286322;28;20026;-60
2021/01/22 17:41:54;;;;;;;9.93;2.60;;;18.30;64.20;;;;;;10280724;28;20018;-61
2021/01/22 17:46:55;;;;;;;7.13;1.98;;;18.30;64.00;;;;;;10288634;28;20066;-62
2021/01/22 17:51:55;;;;;;;8.23;3.47;;;18.30;63.90;;;;;;10286474;28;20499;-62
2021/01/22 17:56:56;;;;;;;7.57;2.55;;;18.30;63.80;;;;;;10280030;28;20054;-62
2021/01/22 18:01:57;;;;;;;6.28;3.10;;;18.20;63.60;;;;;;10285181;28;20502;-61
2021/01/22 18:06:58;;;;;;;6.22;2.00;;;18.20;64.10;;;;;;10290386;28;20039;-60
2021/01/22 18:11:59;;;;;;;6.20;2.40;;;18.10;64.10;;;;;;10284395;28;20077;-59
2021/01/22 18:17:00;;;;;;;7.15;2.70;;;18.10;63.80;;;;;;10282353;28;20035;-61
2021/01/22 18:22:00;;;;;;;6.45;2.33;;;18.00;63.80;;;;;;10285829;28;20540;-60
2021/01/22 18:27:01;;;;;;;7.50;2.88;;;17.90;63.40;;;;;;10285197;28;20100;-62
2021/01/22 18:32:02;;;;;;;7.35;2.28;;;17.90;63.50;;;;;;10287541;28;20035;-61
2021/01/22 18:37:03;;;;;;;10.75;3.45;;;17.70;63.60;;;;;;10280415;28;20027;-61
2021/01/22 18:42:04;;;;;;;8.07;2.63;;;17.70;63.90;;;;;;10286334;28;20026;-61
2021/01/22 18:47:06;;;;;;;5.68;2.33;;;17.70;64.20;;;;;;10275306;28;20125;-61
2021/01/22 18:52:06;;;;;;;8.23;2.58;;;17.60;64.20;;;;;;10280772;28;20026;-61
2021/01/22 18:57:07;;;;;;;7.60;2.92;;;17.60;64.40;;;;;;10274390;28;20118;-62
2021/01/22 19:02:08;;;;;;;4.72;2.28;;;17.50;64.40;;;;;;10270779;28;20027;-61
2021/01/22 19:07:10;;;;;;;6.28;3.05;;;17.50;64.50;;;;;;10273412;28;20130;-61
2021/01/22 19:12:11;;;;;;;5.22;2.97;;;17.40;64.50;;;;;;10267764;28;20142;-62
2021/01/22 19:17:12;;;;;;;5.88;2.30;;;17.40;64.50;;;;;;10261647;28;20532;-61
2021/01/22 19:22:13;;;;;;;7.10;2.50;;;17.40;64.50;;;;;;10287522;28;20400;-62
2021/01/22 19:27:13;;;;;;;5.60;1.75;;;17.30;64.50;;;;;;10289246;28;20023;-61
2021/01/22 19:32:14;;;;;;;6.32;2.45;;;17.30;64.60;;;;;;10287821;28;20506;-62
2021/01/22 19:37:15;;;;;;;6.28;2.63;;;17.20;64.50;;;;;;10284753;28;20038;-61
2021/01/22 19:42:15;;;;;;;4.10;2.35;;;17.20;64.50;;;;;;10271386;28;20034;-62
2021/01/22 19:47:17;;;;;;;9.27;2.90;;;17.20;64.50;;;;;;10286578;28;20035;-61
2021/01/22 19:52:18;;;;;;;4.47;2.50;;;17.10;64.60;;;;;;10288943;28;20498;-61
2021/01/22 19:57:19;;;;;;;4.68;2.28;;;17.10;64.50;;;;;;10283715;28;20026;-62
2021/01/22 20:02:19;;;;;;;3.78;2.65;;;17.10;64.60;;;;;;10277605;28;20142;-61
2021/01/22 20:07:20;;;;;;;4.20;2.45;;;17.00;64.60;;;;;;10271831;28;20059;-61
2021/01/22 20:12:21;;;;;;;4.00;2.22;;;17.00;64.60;;;;;;10266529;28;20110;-61
2021/01/22 20:17:21;;;;;;;6.47;2.92;;;16.90;64.60;;;;;;10260510;28;20126;-61
2021/01/22 20:22:25;;;;;;;6.85;2.88;;;16.90;64.50;;;;;;10275878;28;20101;-62
2021/01/22 20:27:26;;;;;;;4.38;2.63;;;16.90;64.50;;;;;;10289437;28;20035;-62
2021/01/22 20:32:27;;;;;;;5.55;2.55;;;16.90;64.60;;;;;;10287631;28;20045;-61
2021/01/22 20:37:27;;;;;;;5.18;2.80;;;16.80;64.70;;;;;;10284873;28;20111;-61
2021/01/22 20:42:28;;;;;;;4.03;2.83;;;16.80;64.50;;;;;;10273612;28;20372;-62
2021/01/22 20:47:28;;;;;;;3.50;2.75;;;16.80;64.50;;;;;;10273089;28;20113;-62
2021/01/22 20:52:29;;;;;;;4.63;2.70;;;16.80;64.70;;;;;;10304280;28;20107;-62
2021/01/22 20:57:30;;;;;;;4.82;2.45;;;16.70;64.60;;;;;;10281006;28;20454;-62
2021/01/22 21:02:31;;;;;;;4.35;2.50;;;16.70;64.70;;;;;;10275133;28;20082;-62
2021/01/22 21:07:32;;;;;;;5.10;2.83;;;16.70;64.70;;;;;;10277352;28;20540;-62
2021/01/22 21:12:34;;;;;;;4.32;3.10;;;16.60;64.60;;;;;;10271216;28;20035;-61
2021/01/22 21:17:34;;;;;;;7.00;2.55;;;16.70;64.60;;;;;;10256157;28;20023;-62
2021/01/22 21:22:36;;;;;;;3.45;2.42;;;16.60;64.60;;;;;;10287295;28;20105;-62
2021/01/22 21:27:36;;;;;;;4.20;2.85;;;16.60;64.50;;;;;;10283659;28;20422;-62
2021/01/22 21:32:37;;;;;;;4.63;3.00;;;16.60;64.50;;;;;;10283901;28;20142;-62
2021/01/22 21:37:39;;;;;;;5.63;2.95;;;16.60;64.50;;;;;;10284747;28;20046;-62
2021/01/22 21:42:39;;;;;;;5.28;2.58;;;16.60;64.50;;;;;;10266353;28;20412;-62
2021/01/22 21:47:41;;;;;;;5.15;2.35;;;16.50;64.50;;;;;;10282405;28;20039;-62
2021/01/22 21:52:42;;;;;;;4.13;2.45;;;16.50;65.20;;;;;;10283182;28;20027;-61
2021/01/22 21:57:42;;;;;;;4.35;3.10;;;16.50;64.50;;;;;;10283345;28;20133;-61
2021/01/22 22:02:43;;;;;;;3.90;2.70;;;16.50;64.50;;;;;;10272628;28;20098;-61
2021/01/22 22:07:44;;;;;;;3.92;2.60;;;16.50;64.40;;;;;;10275252;28;20470;-62
2021/01/22 22:12:45;;;;;;;4.50;2.58;;;16.40;64.30;;;;;;10271780;28;20102;-62
2021/01/22 22:17:46;;;;;;;5.15;3.05;;;16.40;64.30;;;;;;10266183;28;20130;-62
2021/01/22 22:22:47;;;;;;;4.05;2.60;;;16.40;64.40;;;;;;10286954;28;20027;-61
2021/01/22 22:27:48;;;;;;;3.42;2.45;;;16.40;65.10;;;;;;10283091;28;20479;-61
2021/01/22 22:32:48;;;;;;;5.50;2.65;;;16.40;64.40;;;;;;10279968;28;20110;-61
2021/01/22 22:37:50;;;;;;;4.00;3.00;;;16.30;64.40;;;;;;10279290;28;20030;-62
2021/01/22 22:42:50;;;;;;;4.47;2.65;;;16.30;64.40;;;;;;10282676;28;20016;-62
2021/01/22 22:47:51;;;;;;;3.42;2.40;;;16.30;64.20;;;;;;10290836;28;20483;-61
2021/01/22 22:52:52;;;;;;;4.85;3.05;;;16.30;64.10;;;;;;10291647;28;20367;-62
2021/01/22 22:57:53;;;;;;;3.10;2.42;;;16.30;64.00;;;;;;10286587;28;20036;-62
2021/01/22 23:02:53;;;;;;;3.83;2.67;;;16.20;63.90;;;;;;10287007;28;20026;-61
2021/01/22 23:07:54;;;;;;;3.78;2.95;;;16.20;63.90;;;;;;10273183;28;20031;-61
2021/01/22 23:12:55;;;;;;;4.10;2.75;;;16.20;63.90;;;;;;10278575;28;20038;-62
2021/01/22 23:17:55;;;;;;;4.35;2.78;;;16.20;63.70;;;;;;10263007;28;20042;-62
2021/01/22 23:22:56;;;;;;;5.40;2.60;;;16.20;64.00;;;;;;10282003;28;20109;-62
2021/01/22 23:27:58;;;;;;;3.78;2.55;;;16.10;64.10;;;;;;10293748;28;20070;-62
2021/01/22 23:32:59;;;;;;;3.65;2.35;;;16.10;64.00;;;;;;10284139;28;20031;-61
2021/01/22 23:38:01;;;;;;;4.43;2.58;;;16.10;64.00;;;;;;10285166;28;20027;-62
2021/01/22 23:43:02;;;;;;;4.40;2.75;;;16.10;64.00;;;;;;10279770;28;20031;-62
2021/01/22 23:48:03;;;;;;;5.63;3.05;;;16.10;64.00;;;;;;10278278;28;20033;-61
2021/01/22 23:53:04;;;;;;;4.40;2.25;;;16.10;63.90;;;;;;10289798;28;20031;-61
2021/01/22 23:58:04;;;;;;;3.95;3.30;;;16.00;63.80;;;;;;10281320;28;20106;-62
